createdAt,value
2022-08-02T00:01:15.380Z,21.49
2022-08-02T00:04:05.670Z,21.68
2022-08-02T00:06:54.138Z,21.64
2022-08-02T00:09:42.738Z,20.81
2022-08-02T00:12:31.187Z,20.79
2022-08-02T00:15:19.743Z,21.17
2022-08-02T00:18:08.146Z,20.52
2022-08-02T00:20:58.065Z,20.46
2022-08-02T00:24:27.793Z,20.66
2022-08-02T00:26:54.871Z,20.47
2022-08-02T00:29:53.260Z,20.45
2022-08-02T00:32:43.078Z,20.53
2022-08-02T00:35:31.555Z,20.57
2022-08-02T00:38:21.311Z,20.94
2022-08-02T00:41:14.337Z,20.67
2022-08-02T00:44:02.764Z,20.42
2022-08-02T00:46:51.313Z,20.18
2022-08-02T00:49:39.814Z,20.15
2022-08-02T00:52:28.462Z,19.97
2022-08-02T00:55:18.760Z,19.99
2022-08-02T00:58:19.344Z,20.35
2022-08-02T01:01:08.633Z,19.79
2022-08-02T01:03:57.115Z,19.83
2022-08-02T01:06:45.470Z,19.70
2022-08-02T01:09:34.022Z,19.70
2022-08-02T01:12:23.831Z,19.95
2022-08-02T01:15:13.749Z,19.90
2022-08-02T01:18:07.244Z,19.52
2022-08-02T01:21:19.814Z,19.62
2022-08-02T01:24:32.365Z,19.69
2022-08-02T01:27:34.824Z,19.49
2022-08-02T01:30:24.883Z,19.65
2022-08-02T01:33:17.999Z,19.77
2022-08-02T01:36:11.059Z,19.95
2022-08-02T01:39:02.164Z,19.70
2022-08-02T01:41:57.392Z,19.94
2022-08-02T01:44:50.371Z,20.49
2022-08-02T01:47:42.840Z,20.34
2022-08-02T01:50:34.857Z,20.60
2022-08-02T01:53:25.428Z,20.37
2022-08-02T01:56:15.169Z,20.08
2022-08-02T01:59:06.691Z,20.57
2022-08-02T02:01:57.381Z,19.96
2022-08-02T02:04:50.217Z,20.28
2022-08-02T02:07:40.617Z,20.49
2022-08-02T02:10:32.525Z,20.29
2022-08-02T02:13:28.775Z,19.76
2022-08-02T02:16:23.943Z,19.96
2022-08-02T02:19:20.960Z,19.77
2022-08-02T02:22:12.196Z,19.70
2022-08-02T02:25:01.110Z,19.69
2022-08-02T02:27:56.616Z,19.82
2022-08-02T02:30:50.897Z,20.03
2022-08-02T02:33:42.753Z,19.70
2022-08-02T02:36:34.660Z,19.50
2022-08-02T02:39:26.165Z,19.57
2022-08-02T02:42:17.395Z,19.21
2022-08-02T02:45:07.285Z,19.78
2022-08-02T02:47:57.113Z,19.79
2022-08-02T02:50:46.631Z,19.73
2022-08-02T02:54:30.605Z,19.42
2022-08-02T02:56:47.256Z,19.51
2022-08-02T02:59:42.595Z,19.10
2022-08-02T03:02:39.991Z,19.33
2022-08-02T03:05:28.706Z,19.37
2022-08-02T03:08:17.281Z,19.51
2022-08-02T03:11:09.977Z,19.67
2022-08-02T03:14:01.628Z,19.87
2022-08-02T03:16:52.229Z,20.06
2022-08-02T03:19:40.545Z,19.91
2022-08-02T03:22:28.932Z,19.45
2022-08-02T03:25:18.845Z,19.77
2022-08-02T03:28:07.437Z,19.69
2022-08-02T03:30:57.245Z,19.73
2022-08-02T03:33:46.858Z,19.86
2022-08-02T03:36:36.882Z,19.87
2022-08-02T03:39:27.168Z,19.95
2022-08-02T03:42:16.924Z,19.93
2022-08-02T03:45:09.270Z,19.64
2022-08-02T03:47:59.745Z,19.52
2022-08-02T03:50:49.376Z,19.28
2022-08-02T03:53:41.691Z,19.61
2022-08-02T03:56:30.712Z,19.78
2022-08-02T03:59:19.178Z,19.97
2022-08-02T04:02:07.878Z,19.37
2022-08-02T04:04:57.813Z,19.80
2022-08-02T04:08:33.693Z,19.92
2022-08-02T04:11:12.296Z,20.59
2022-08-02T04:14:02.839Z,19.94
2022-08-02T04:16:55.166Z,19.70
2022-08-02T04:19:49.990Z,20.29
2022-08-02T04:22:45.974Z,20.36
2022-08-02T04:25:40.583Z,20.57
2022-08-02T04:28:30.942Z,20.50
2022-08-02T04:31:21.074Z,20.49
2022-08-02T04:34:14.715Z,20.06
2022-08-02T04:37:04.071Z,20.27
2022-08-02T04:39:53.929Z,20.61
2022-08-02T04:42:42.765Z,20.24
2022-08-02T04:45:32.168Z,20.88
2022-08-02T04:48:20.728Z,20.33
2022-08-02T04:51:09.160Z,20.26
2022-08-02T04:54:06.439Z,20.30
2022-08-02T04:56:59.938Z,20.45
2022-08-02T04:59:52.789Z,20.97
2022-08-02T05:02:42.823Z,20.47
2022-08-02T05:05:31.235Z,20.20
2022-08-02T05:08:19.647Z,20.46
2022-08-02T05:11:07.951Z,20.42
2022-08-02T05:13:59.451Z,20.56
2022-08-02T05:16:48.020Z,20.53
2022-08-02T05:19:36.537Z,21.00
2022-08-02T05:22:24.962Z,21.11
2022-08-02T05:25:13.962Z,20.80
2022-08-02T05:28:02.402Z,20.25
2022-08-02T05:30:52.331Z,20.70
2022-08-02T05:33:40.736Z,20.56
2022-08-02T05:36:29.223Z,19.93
2022-08-02T05:39:18.920Z,20.74
2022-08-02T05:42:08.589Z,20.25
2022-08-02T05:44:57.407Z,20.57
2022-08-02T05:47:47.341Z,20.94
2022-08-02T05:50:40.366Z,20.49
2022-08-02T05:53:38.248Z,20.59
2022-08-02T05:56:34.222Z,21.13
2022-08-02T05:59:33.531Z,21.05
2022-08-02T06:02:31.458Z,20.74
2022-08-02T06:05:22.855Z,21.02
2022-08-02T06:08:14.414Z,21.34
2022-08-02T06:11:05.356Z,21.37
2022-08-02T06:13:54.728Z,21.62
2022-08-02T06:16:45.104Z,21.52
2022-08-02T06:19:36.593Z,21.49
2022-08-02T06:22:43.883Z,21.42
2022-08-02T06:25:50.061Z,21.60
2022-08-02T06:28:40.916Z,21.63
2022-08-02T06:31:29.974Z,22.03
2022-08-02T06:34:18.338Z,21.44
2022-08-02T06:37:12.620Z,21.80
2022-08-02T06:40:07.384Z,21.90
2022-08-02T06:43:08.250Z,21.41
2022-08-02T06:45:56.874Z,20.43
2022-08-02T06:49:05.717Z,20.75
2022-08-02T06:51:54.262Z,20.94
2022-08-02T06:54:42.692Z,20.52
2022-08-02T06:57:32.997Z,20.86
2022-08-02T07:00:21.595Z,20.38
2022-08-02T07:03:10.287Z,20.90
2022-08-02T07:05:58.741Z,21.00
2022-08-02T07:09:04.956Z,20.96
2022-08-02T07:11:55.871Z,20.80
2022-08-02T07:14:45.695Z,21.35
2022-08-02T07:17:34.281Z,21.60
2022-08-02T07:20:22.894Z,21.25
2022-08-02T07:23:11.346Z,20.83
2022-08-02T07:26:02.590Z,21.54
2022-08-02T07:28:52.723Z,21.48
2022-08-02T07:31:42.442Z,21.36
2022-08-02T07:34:30.875Z,21.83
2022-08-02T07:37:29.820Z,21.87
2022-08-02T07:40:27.962Z,22.32
2022-08-02T07:43:17.077Z,21.74
2022-08-02T07:46:05.461Z,22.17
2022-08-02T07:48:55.201Z,22.10
2022-08-02T07:51:43.676Z,21.97
2022-08-02T07:54:33.934Z,21.92
2022-08-02T07:57:22.331Z,21.39
2022-08-02T08:00:11.700Z,21.66
2022-08-02T08:03:00.491Z,21.86
2022-08-02T08:05:50.392Z,22.51
2022-08-02T08:08:38.913Z,22.90
2022-08-02T08:11:27.457Z,22.85
2022-08-02T08:14:16.978Z,22.67
2022-08-02T08:17:05.860Z,22.30
2022-08-02T08:19:54.311Z,22.55
2022-08-02T08:22:44.133Z,22.76
2022-08-02T08:25:32.667Z,22.57
2022-08-02T08:28:28.494Z,23.12
2022-08-02T08:31:16.853Z,23.26
2022-08-02T08:34:05.986Z,23.67
2022-08-02T08:36:54.443Z,23.86
2022-08-02T08:39:57.922Z,23.65
2022-08-02T08:42:47.241Z,23.50
2022-08-02T08:45:35.882Z,23.69
2022-08-02T08:48:30.416Z,23.43
2022-08-02T08:51:23.090Z,23.15
2022-08-02T08:54:16.396Z,23.16
2022-08-02T08:57:07.894Z,23.66
2022-08-02T08:59:56.426Z,23.33
2022-08-02T09:02:45.359Z,23.78
2022-08-02T09:05:36.386Z,23.17
2022-08-02T09:08:25.119Z,23.70
2022-08-02T09:11:18.123Z,23.67
2022-08-02T09:14:07.925Z,23.98
2022-08-02T09:17:08.037Z,24.72
2022-08-02T09:20:08.690Z,23.78
2022-08-02T09:23:07.672Z,23.66
2022-08-02T09:26:06.981Z,23.88
2022-08-02T09:29:02.140Z,24.86
2022-08-02T09:31:52.832Z,25.00
2022-08-02T09:34:46.178Z,25.10
2022-08-02T09:37:34.522Z,23.70
2022-08-02T09:40:37.304Z,25.00
2022-08-02T09:43:37.280Z,24.07
2022-08-02T09:46:28.297Z,23.94
2022-08-02T09:49:20.245Z,23.55
2022-08-02T09:52:08.954Z,24.82
2022-08-02T09:55:04.930Z,24.89
2022-08-02T09:57:53.444Z,24.78
2022-08-02T10:00:53.783Z,24.58
2022-08-02T10:03:58.894Z,24.48
2022-08-02T10:06:50.965Z,24.12
2022-08-02T10:09:46.438Z,24.47
2022-08-02T10:12:37.912Z,24.47
2022-08-02T10:15:27.579Z,24.89
2022-08-02T10:18:37.197Z,24.25
2022-08-02T10:21:30.870Z,24.86
2022-08-02T10:24:23.814Z,25.34
2022-08-02T10:27:16.324Z,25.63
2022-08-02T10:30:05.121Z,25.85
2022-08-02T10:32:55.197Z,25.26
2022-08-02T10:35:44.019Z,25.64
2022-08-02T10:38:33.021Z,25.29
2022-08-02T10:41:47.925Z,25.53
2022-08-02T10:44:37.881Z,25.47
2022-08-02T10:47:27.245Z,25.60
2022-08-02T10:50:15.754Z,25.66
2022-08-02T10:53:26.031Z,25.31
2022-08-02T10:56:15.004Z,25.39
2022-08-02T10:59:29.409Z,25.60
2022-08-02T11:02:36.914Z,25.61
2022-08-02T11:05:42.159Z,25.73
2022-08-02T11:08:31.089Z,24.93
2022-08-02T11:11:20.522Z,25.46
2022-08-02T11:14:30.595Z,25.04
2022-08-02T11:17:20.376Z,25.48
2022-08-02T11:20:27.366Z,26.35
2022-08-02T11:23:43.981Z,26.14
2022-08-02T11:26:44.828Z,25.11
2022-08-02T11:29:39.929Z,25.05
2022-08-02T11:32:30.713Z,24.44
2022-08-02T11:35:19.974Z,24.86
2022-08-02T11:38:20.150Z,25.41
2022-08-02T11:41:09.894Z,25.56
2022-08-02T11:43:58.974Z,25.57
2022-08-02T11:46:55.434Z,25.43
2022-08-02T11:49:44.868Z,25.35
2022-08-02T11:52:34.601Z,25.64
2022-08-02T11:55:28.630Z,25.76
2022-08-02T11:58:18.016Z,25.73
2022-08-02T12:01:07.148Z,25.99
2022-08-02T12:04:00.979Z,26.50
2022-08-02T12:06:57.037Z,26.47
2022-08-02T12:09:45.462Z,27.83
2022-08-02T12:12:33.939Z,27.54
2022-08-02T12:15:36.866Z,26.81
2022-08-02T12:18:43.215Z,27.01
2022-08-02T12:21:32.981Z,27.59
2022-08-02T12:24:30.929Z,26.91
2022-08-02T12:27:33.574Z,27.19
2022-08-02T12:30:27.472Z,26.92
2022-08-02T12:33:16.378Z,27.80
2022-08-02T12:36:15.507Z,27.16
2022-08-02T12:39:11.677Z,27.27
2022-08-02T12:42:00.056Z,27.09
2022-08-02T12:44:53.296Z,28.05
2022-08-02T12:47:47.156Z,28.13
2022-08-02T12:50:37.616Z,28.06
2022-08-02T12:53:34.665Z,28.02
2022-08-02T12:56:33.508Z,27.41
2022-08-02T12:59:38.478Z,28.92
2022-08-02T13:02:27.600Z,26.92
2022-08-02T13:05:16.177Z,28.77
2022-08-02T13:08:06.442Z,28.91
2022-08-02T13:10:54.825Z,29.77
2022-08-02T13:13:45.201Z,28.03
2022-08-02T13:16:33.801Z,27.80
2022-08-02T13:19:22.356Z,27.10
2022-08-02T13:22:10.938Z,27.45
2022-08-02T13:24:59.522Z,26.83
2022-08-02T13:27:47.963Z,28.22
2022-08-02T13:30:37.939Z,27.43
2022-08-02T13:33:26.306Z,28.26
2022-08-02T13:36:14.672Z,27.66
2022-08-02T13:39:04.123Z,28.52
2022-08-02T13:41:52.930Z,28.71
2022-08-02T13:44:41.415Z,27.47
2022-08-02T13:47:36.252Z,27.89
2022-08-02T13:50:39.980Z,29.19
2022-08-02T13:53:28.566Z,30.11
2022-08-02T13:56:17.931Z,29.30
2022-08-02T13:59:54.629Z,29.63
2022-08-02T14:02:18.101Z,29.29
2022-08-02T14:05:09.329Z,29.51
2022-08-02T14:08:00.181Z,30.17
2022-08-02T14:10:51.187Z,30.39
2022-08-02T14:13:39.657Z,30.34
2022-08-02T14:16:30.362Z,29.99
2022-08-02T14:19:22.030Z,30.06
2022-08-02T14:22:21.289Z,30.19
2022-08-02T14:25:11.048Z,30.19
2022-08-02T14:27:59.539Z,30.25
2022-08-02T14:30:48.044Z,30.26
2022-08-02T14:33:36.434Z,30.16
2022-08-02T14:36:27.171Z,30.01
2022-08-02T14:39:18.511Z,30.08
2022-08-02T14:42:07.937Z,30.11
2022-08-02T14:44:56.347Z,29.83
2022-08-02T14:47:44.807Z,29.43
2022-08-02T14:50:33.920Z,29.52
2022-08-02T14:53:22.535Z,29.15
2022-08-02T14:56:12.393Z,29.09
2022-08-02T14:59:01.033Z,28.43
2022-08-02T15:01:49.511Z,29.14
2022-08-02T15:04:42.499Z,29.10
2022-08-02T15:07:31.914Z,29.24
2022-08-02T15:10:20.246Z,30.18
2022-08-02T15:13:09.973Z,29.06
2022-08-02T15:15:58.538Z,29.74
2022-08-02T15:18:46.937Z,28.87
2022-08-02T15:21:41.766Z,29.34
2022-08-02T15:24:30.934Z,29.46
2022-08-02T15:27:19.433Z,29.13
2022-08-02T15:30:09.902Z,30.12
2022-08-02T15:32:58.273Z,30.91
2022-08-02T15:35:46.728Z,30.05
2022-08-02T15:38:35.329Z,31.04
2022-08-02T15:41:23.747Z,30.48
2022-08-02T15:44:14.021Z,28.57
2022-08-02T15:47:07.055Z,29.08
2022-08-02T15:49:55.503Z,29.71
2022-08-02T15:52:43.936Z,29.93
2022-08-02T15:55:52.036Z,30.15
2022-08-02T15:58:40.785Z,30.03
2022-08-02T16:01:38.371Z,29.79
2022-08-02T16:04:29.312Z,28.11
2022-08-02T16:07:17.745Z,27.98
2022-08-02T16:10:06.930Z,27.95
2022-08-02T16:13:15.409Z,27.61
2022-08-02T16:16:03.686Z,28.21
2022-08-02T16:18:52.180Z,28.21
2022-08-02T16:21:42.112Z,28.67
2022-08-02T16:24:30.853Z,27.95
2022-08-02T16:27:19.578Z,28.80
2022-08-02T16:30:09.704Z,29.13
2022-08-02T16:32:58.202Z,28.18
2022-08-02T16:35:47.910Z,28.22
2022-08-02T16:38:37.755Z,27.63
2022-08-02T16:41:50.204Z,28.03
2022-08-02T16:44:34.859Z,27.96
2022-08-02T16:47:36.992Z,28.27
2022-08-02T16:50:31.795Z,28.88
2022-08-02T16:53:36.603Z,28.86
2022-08-02T16:56:27.152Z,28.98
2022-08-02T16:59:15.758Z,28.19
2022-08-02T17:02:15.327Z,28.96
2022-08-02T17:05:13.474Z,28.99
2022-08-02T17:08:15.086Z,27.95
2022-08-02T17:11:05.831Z,27.94
2022-08-02T17:13:55.530Z,27.60
2022-08-02T17:16:43.904Z,27.50
2022-08-02T17:19:35.299Z,27.99
2022-08-02T17:22:26.726Z,28.68
2022-08-02T17:25:17.145Z,28.93
2022-08-02T17:28:05.984Z,28.64
2022-08-02T17:30:59.174Z,28.19
2022-08-02T17:33:49.226Z,27.84
2022-08-02T17:36:37.621Z,28.29
2022-08-02T17:39:33.575Z,28.33
2022-08-02T17:42:24.151Z,28.14
2022-08-02T17:45:25.354Z,28.39
2022-08-02T17:48:15.721Z,28.28
2022-08-02T17:51:04.336Z,28.26
2022-08-02T17:53:52.746Z,28.27
2022-08-02T17:56:45.097Z,27.86
2022-08-02T17:59:41.816Z,27.69
2022-08-02T18:02:30.655Z,28.18
2022-08-02T18:05:20.943Z,28.85
2022-08-02T18:08:09.337Z,28.13
2022-08-02T18:10:58.579Z,28.40
2022-08-02T18:13:53.169Z,28.13
2022-08-02T18:16:55.627Z,28.23
2022-08-02T18:19:53.939Z,27.89
2022-08-02T18:22:47.448Z,26.91
2022-08-02T18:25:46.647Z,26.28
2022-08-02T18:28:36.122Z,26.20
2022-08-02T18:31:25.253Z,26.08
2022-08-02T18:34:13.998Z,26.03
2022-08-02T18:37:02.913Z,26.02
2022-08-02T18:39:52.659Z,24.90
2022-08-02T18:42:41.097Z,24.35
2022-08-02T18:46:06.031Z,24.71
2022-08-02T18:48:38.471Z,24.93
2022-08-02T18:51:27.317Z,24.84
2022-08-02T18:58:18.592Z,24.30
2022-08-02T19:00:44.995Z,24.50
2022-08-02T19:03:37.011Z,24.50
2022-08-02T19:06:27.588Z,24.55
2022-08-02T19:09:17.675Z,24.31
2022-08-02T19:12:06.443Z,24.18
2022-08-02T19:14:56.459Z,23.97
2022-08-02T19:17:55.119Z,23.61
2022-08-02T19:20:48.118Z,24.10
2022-08-02T19:23:37.502Z,23.88
2022-08-02T19:26:42.838Z,23.47
2022-08-02T19:29:43.086Z,23.37
2022-08-02T19:32:59.480Z,23.46
2022-08-02T19:36:01.287Z,23.41
2022-08-02T19:38:52.252Z,23.53
2022-08-02T19:41:43.977Z,23.34
2022-08-02T19:44:35.382Z,22.77
2022-08-02T19:47:23.895Z,22.87
2022-08-02T19:50:15.045Z,22.95
2022-08-02T19:53:03.476Z,22.91
2022-08-02T19:56:01.624Z,22.95
2022-08-02T19:58:52.064Z,22.98
2022-08-02T20:01:44.772Z,22.97
2022-08-02T20:04:35.185Z,22.95
2022-08-02T20:07:54.859Z,22.62
2022-08-02T20:10:34.749Z,22.61
2022-08-02T20:13:24.778Z,22.66
2022-08-02T20:16:20.910Z,22.63
2022-08-02T20:19:16.637Z,22.33
2022-08-02T20:22:05.125Z,22.23
2022-08-02T20:24:56.748Z,22.13
2022-08-02T20:27:50.919Z,22.27
2022-08-02T20:30:40.194Z,22.28
2022-08-02T20:33:28.543Z,22.17
2022-08-02T20:36:16.995Z,22.06
2022-08-02T20:39:05.761Z,21.99
2022-08-02T20:41:57.180Z,22.29
2022-08-02T20:44:47.516Z,22.44
2022-08-02T20:47:39.603Z,22.60
2022-08-02T20:50:46.165Z,22.38
2022-08-02T20:53:54.749Z,22.17
2022-08-02T20:56:44.622Z,22.27
2022-08-02T20:59:40.857Z,22.18
2022-08-02T21:02:31.641Z,22.22
2022-08-02T21:05:20.571Z,22.59
2022-08-02T21:08:15.780Z,22.51
2022-08-02T21:11:09.380Z,22.39
2022-08-02T21:14:07.973Z,22.23
2022-08-02T21:16:59.127Z,22.26
2022-08-02T21:19:50.371Z,22.58
2022-08-02T21:22:38.866Z,22.55
2022-08-02T21:25:50.676Z,22.50
2022-08-02T21:28:44.850Z,22.34
2022-08-02T21:31:35.706Z,22.32
2022-08-02T21:34:27.185Z,22.39
2022-08-02T21:37:16.813Z,22.60
2022-08-02T21:40:06.175Z,22.70
2022-08-02T21:42:57.967Z,22.63
2022-08-02T21:45:53.782Z,22.63
2022-08-02T21:48:44.557Z,22.76
2022-08-02T21:51:34.518Z,22.63
2022-08-02T21:54:23.812Z,22.22
2022-08-02T21:57:16.230Z,21.96
2022-08-02T22:00:10.718Z,22.23
2022-08-02T22:02:59.221Z,22.39
2022-08-02T22:06:08.167Z,22.35
2022-08-02T22:08:58.061Z,22.32
2022-08-02T22:11:46.629Z,22.35
2022-08-02T22:14:36.884Z,22.42
2022-08-02T22:17:50.570Z,22.50
2022-08-02T22:20:38.639Z,22.49
2022-08-02T22:23:38.753Z,22.49
2022-08-02T22:26:39.180Z,22.53
2022-08-02T22:29:27.918Z,22.37
2022-08-02T22:32:36.441Z,22.45
2022-08-02T22:35:25.192Z,22.43
2022-08-02T22:38:18.406Z,22.25
2022-08-02T22:41:07.089Z,22.12
2022-08-02T22:43:59.207Z,22.25
2022-08-02T22:46:49.754Z,22.33
2022-08-02T22:49:45.460Z,22.38
2022-08-02T22:52:41.513Z,22.34
2022-08-02T22:55:35.556Z,22.29
2022-08-02T22:58:29.821Z,22.21
2022-08-02T22:58:58.055Z,24.22
2022-08-02T23:01:19.688Z,22.28
2022-08-02T23:04:08.285Z,22.21
2022-08-02T23:06:56.668Z,22.13
2022-08-02T23:09:45.113Z,22.23
2022-08-02T23:12:33.697Z,22.21
2022-08-02T23:15:22.335Z,22.26
2022-08-02T23:18:29.610Z,22.24
2022-08-02T23:21:46.161Z,22.21
2022-08-02T23:24:27.922Z,22.18
2022-08-02T23:27:16.742Z,22.15
2022-08-02T23:30:06.434Z,22.10
2022-08-02T23:32:54.865Z,21.95
2022-08-02T23:35:44.750Z,21.89
2022-08-02T23:38:33.131Z,22.02
2022-08-02T23:41:21.576Z,22.03
2022-08-02T23:44:14.774Z,22.03
2022-08-02T23:47:03.630Z,22.00
2022-08-02T23:49:52.128Z,21.73
2022-08-02T23:52:41.980Z,21.37
2022-08-02T23:55:30.421Z,20.66
2022-08-02T23:58:18.993Z,19.91
